sensor_id;sensor_type;location;lat;lon;timestamp;P1;durP1;ratioP1;P2;durP2;ratioP2
55186;SDS011;55457;52.002;5.464;2023-09-12T00:00:18;10.25;;;8.10;;
55186;SDS011;55457;52.002;5.464;2023-09-12T00:02:44;12.63;;;9.40;;
55186;SDS011;55457;52.002;5.464;2023-09-12T00:05:09;13.70;;;9.25;;
55186;SDS011;55457;52.002;5.464;2023-09-12T00:07:35;13.77;;;8.68;;
55186;SDS011;55457;52.002;5.464;2023-09-12T00:10:01;14.63;;;9.32;;
55186;SDS011;55457;52.002;5.464;2023-09-12T00:12:27;11.85;;;8.98;;
55186;SDS011;55457;52.002;5.464;2023-09-12T00:14:54;14.65;;;9.45;;
55186;SDS011;55457;52.002;5.464;2023-09-12T00:17:19;13.43;;;8.38;;
55186;SDS011;55457;52.002;5.464;2023-09-12T00:19:45;10.90;;;8.20;;
55186;SDS011;55457;52.002;5.464;2023-09-12T00:22:10;12.95;;;8.38;;
55186;SDS011;55457;52.002;5.464;2023-09-12T00:24:35;10.65;;;8.30;;
55186;SDS011;55457;52.002;5.464;2023-09-12T00:27:03;12.52;;;8.70;;
55186;SDS011;55457;52.002;5.464;2023-09-12T00:29:29;13.30;;;8.85;;
55186;SDS011;55457;52.002;5.464;2023-09-12T00:31:55;11.77;;;8.85;;
55186;SDS011;55457;52.002;5.464;2023-09-12T00:34:20;11.82;;;8.35;;
55186;SDS011;55457;52.002;5.464;2023-09-12T00:36:46;13.32;;;8.88;;
55186;SDS011;55457;52.002;5.464;2023-09-12T00:39:11;11.80;;;8.45;;
55186;SDS011;55457;52.002;5.464;2023-09-12T00:41:36;12.20;;;8.50;;
55186;SDS011;55457;52.002;5.464;2023-09-12T00:44:02;11.23;;;8.45;;
55186;SDS011;55457;52.002;5.464;2023-09-12T00:46:27;14.25;;;9.00;;
55186;SDS011;55457;52.002;5.464;2023-09-12T00:48:53;11.95;;;8.30;;
55186;SDS011;55457;52.002;5.464;2023-09-12T00:51:20;12.85;;;8.90;;
55186;SDS011;55457;52.002;5.464;2023-09-12T00:53:49;16.10;;;8.50;;
55186;SDS011;55457;52.002;5.464;2023-09-12T00:56:14;11.43;;;8.68;;
55186;SDS011;55457;52.002;5.464;2023-09-12T00:58:40;10.55;;;7.60;;
55186;SDS011;55457;52.002;5.464;2023-09-12T01:01:05;13.27;;;8.43;;
55186;SDS011;55457;52.002;5.464;2023-09-12T01:03:31;10.50;;;8.30;;
55186;SDS011;55457;52.002;5.464;2023-09-12T01:05:57;11.55;;;8.68;;
55186;SDS011;55457;52.002;5.464;2023-09-12T01:08:25;12.25;;;8.75;;
55186;SDS011;55457;52.002;5.464;2023-09-12T01:10:50;10.38;;;7.70;;
55186;SDS011;55457;52.002;5.464;2023-09-12T01:13:18;12.32;;;7.38;;
55186;SDS011;55457;52.002;5.464;2023-09-12T01:15:44;10.90;;;7.70;;
55186;SDS011;55457;52.002;5.464;2023-09-12T01:18:09;12.98;;;7.65;;
55186;SDS011;55457;52.002;5.464;2023-09-12T01:20:35;10.10;;;7.65;;
55186;SDS011;55457;52.002;5.464;2023-09-12T01:26:23;9.80;;;7.55;;
55186;SDS011;55457;52.002;5.464;2023-09-12T01:28:54;10.85;;;8.88;;
55186;SDS011;55457;52.002;5.464;2023-09-12T01:31:22;10.48;;;7.60;;
55186;SDS011;55457;52.002;5.464;2023-09-12T01:33:49;10.35;;;7.30;;
55186;SDS011;55457;52.002;5.464;2023-09-12T01:36:15;8.35;;;6.85;;
55186;SDS011;55457;52.002;5.464;2023-09-12T01:38:40;10.13;;;8.15;;
55186;SDS011;55457;52.002;5.464;2023-09-12T01:41:06;8.43;;;7.53;;
55186;SDS011;55457;52.002;5.464;2023-09-12T01:43:32;10.57;;;7.82;;
55186;SDS011;55457;52.002;5.464;2023-09-12T01:46:01;9.85;;;7.97;;
55186;SDS011;55457;52.002;5.464;2023-09-12T01:48:28;10.30;;;7.55;;
55186;SDS011;55457;52.002;5.464;2023-09-12T01:50:58;9.07;;;6.97;;
55186;SDS011;55457;52.002;5.464;2023-09-12T01:53:25;11.32;;;6.82;;
55186;SDS011;55457;52.002;5.464;2023-09-12T01:55:51;7.95;;;6.68;;
55186;SDS011;55457;52.002;5.464;2023-09-12T01:58:17;8.18;;;6.70;;
55186;SDS011;55457;52.002;5.464;2023-09-12T02:00:42;8.32;;;6.65;;
55186;SDS011;55457;52.002;5.464;2023-09-12T02:03:08;8.40;;;7.00;;
55186;SDS011;55457;52.002;5.464;2023-09-12T02:05:33;7.95;;;7.00;;
55186;SDS011;55457;52.002;5.464;2023-09-12T02:07:59;8.13;;;6.20;;
55186;SDS011;55457;52.002;5.464;2023-09-12T02:10:27;7.50;;;6.72;;
55186;SDS011;55457;52.002;5.464;2023-09-12T02:12:53;7.35;;;6.38;;
55186;SDS011;55457;52.002;5.464;2023-09-12T02:15:18;7.40;;;6.40;;
55186;SDS011;55457;52.002;5.464;2023-09-12T02:17:44;8.10;;;6.05;;
55186;SDS011;55457;52.002;5.464;2023-09-12T02:20:09;6.95;;;5.95;;
55186;SDS011;55457;52.002;5.464;2023-09-12T02:22:35;8.15;;;6.55;;
55186;SDS011;55457;52.002;5.464;2023-09-12T02:25:02;8.10;;;6.03;;
55186;SDS011;55457;52.002;5.464;2023-09-12T02:27:29;7.32;;;6.35;;
55186;SDS011;55457;52.002;5.464;2023-09-12T02:29:55;6.93;;;5.55;;
55186;SDS011;55457;52.002;5.464;2023-09-12T02:32:20;6.30;;;5.68;;
55186;SDS011;55457;52.002;5.464;2023-09-12T02:34:45;7.38;;;5.80;;
55186;SDS011;55457;52.002;5.464;2023-09-12T02:37:11;7.55;;;5.72;;
55186;SDS011;55457;52.002;5.464;2023-09-12T02:39:36;6.55;;;5.57;;
55186;SDS011;55457;52.002;5.464;2023-09-12T02:42:01;6.68;;;5.80;;
55186;SDS011;55457;52.002;5.464;2023-09-12T02:44:27;9.65;;;5.85;;
55186;SDS011;55457;52.002;5.464;2023-09-12T02:46:53;7.72;;;5.95;;
55186;SDS011;55457;52.002;5.464;2023-09-12T02:49:19;8.02;;;5.97;;
55186;SDS011;55457;52.002;5.464;2023-09-12T02:51:45;6.78;;;5.28;;
55186;SDS011;55457;52.002;5.464;2023-09-12T02:54:10;7.43;;;5.90;;
55186;SDS011;55457;52.002;5.464;2023-09-12T02:56:36;7.50;;;6.05;;
55186;SDS011;55457;52.002;5.464;2023-09-12T02:59:01;9.95;;;6.50;;
55186;SDS011;55457;52.002;5.464;2023-09-12T03:01:27;8.80;;;6.60;;
55186;SDS011;55457;52.002;5.464;2023-09-12T03:03:53;6.45;;;5.22;;
55186;SDS011;55457;52.002;5.464;2023-09-12T03:06:19;7.55;;;5.40;;
55186;SDS011;55457;52.002;5.464;2023-09-12T03:08:45;7.68;;;5.82;;
55186;SDS011;55457;52.002;5.464;2023-09-12T03:11:13;7.07;;;5.82;;
55186;SDS011;55457;52.002;5.464;2023-09-12T03:13:39;5.97;;;5.28;;
55186;SDS011;55457;52.002;5.464;2023-09-12T03:16:09;6.55;;;5.00;;
55186;SDS011;55457;52.002;5.464;2023-09-12T03:18:35;6.38;;;4.95;;
55186;SDS011;55457;52.002;5.464;2023-09-12T03:21:00;7.88;;;4.85;;
55186;SDS011;55457;52.002;5.464;2023-09-12T03:23:26;6.07;;;5.25;;
55186;SDS011;55457;52.002;5.464;2023-09-12T03:25:52;6.47;;;5.47;;
55186;SDS011;55457;52.002;5.464;2023-09-12T03:28:17;5.90;;;5.13;;
55186;SDS011;55457;52.002;5.464;2023-09-12T03:30:43;5.60;;;4.50;;
55186;SDS011;55457;52.002;5.464;2023-09-12T03:33:08;5.55;;;4.80;;
55186;SDS011;55457;52.002;5.464;2023-09-12T03:35:33;5.65;;;4.63;;
55186;SDS011;55457;52.002;5.464;2023-09-12T03:37:59;5.55;;;4.88;;
55186;SDS011;55457;52.002;5.464;2023-09-12T03:40:27;5.32;;;4.15;;
55186;SDS011;55457;52.002;5.464;2023-09-12T03:42:54;4.88;;;4.35;;
55186;SDS011;55457;52.002;5.464;2023-09-12T03:45:19;5.05;;;3.65;;
55186;SDS011;55457;52.002;5.464;2023-09-12T03:47:45;5.82;;;3.90;;
55186;SDS011;55457;52.002;5.464;2023-09-12T03:50:11;4.93;;;4.43;;
55186;SDS011;55457;52.002;5.464;2023-09-12T03:52:38;5.82;;;4.30;;
55186;SDS011;55457;52.002;5.464;2023-09-12T03:55:03;5.10;;;4.55;;
55186;SDS011;55457;52.002;5.464;2023-09-12T03:57:29;4.10;;;3.58;;
55186;SDS011;55457;52.002;5.464;2023-09-12T03:59:54;7.05;;;4.40;;
55186;SDS011;55457;52.002;5.464;2023-09-12T04:02:19;4.28;;;3.63;;
55186;SDS011;55457;52.002;5.464;2023-09-12T04:04:44;4.57;;;4.05;;
55186;SDS011;55457;52.002;5.464;2023-09-12T04:07:10;4.35;;;3.65;;
55186;SDS011;55457;52.002;5.464;2023-09-12T04:09:35;5.35;;;3.50;;
55186;SDS011;55457;52.002;5.464;2023-09-12T04:12:01;5.32;;;3.97;;
55186;SDS011;55457;52.002;5.464;2023-09-12T04:14:26;7.43;;;4.65;;
55186;SDS011;55457;52.002;5.464;2023-09-12T04:16:51;5.75;;;3.67;;
55186;SDS011;55457;52.002;5.464;2023-09-12T04:19:17;6.20;;;3.88;;
55186;SDS011;55457;52.002;5.464;2023-09-12T04:21:42;5.40;;;3.88;;
55186;SDS011;55457;52.002;5.464;2023-09-12T04:24:08;6.90;;;3.90;;
55186;SDS011;55457;52.002;5.464;2023-09-12T04:26:33;8.38;;;4.60;;
55186;SDS011;55457;52.002;5.464;2023-09-12T04:28:59;4.85;;;4.13;;
55186;SDS011;55457;52.002;5.464;2023-09-12T04:31:24;6.03;;;4.18;;
55186;SDS011;55457;52.002;5.464;2023-09-12T04:33:50;5.78;;;4.13;;
55186;SDS011;55457;52.002;5.464;2023-09-12T04:36:17;6.63;;;4.47;;
55186;SDS011;55457;52.002;5.464;2023-09-12T04:38:42;5.40;;;3.67;;
55186;SDS011;55457;52.002;5.464;2023-09-12T04:41:08;5.00;;;4.40;;
55186;SDS011;55457;52.002;5.464;2023-09-12T04:43:34;6.30;;;4.82;;
55186;SDS011;55457;52.002;5.464;2023-09-12T04:46:00;5.80;;;3.85;;
55186;SDS011;55457;52.002;5.464;2023-09-12T04:48:26;4.43;;;3.97;;
55186;SDS011;55457;52.002;5.464;2023-09-12T04:50:51;6.18;;;4.30;;
55186;SDS011;55457;52.002;5.464;2023-09-12T04:53:16;5.93;;;4.68;;
55186;SDS011;55457;52.002;5.464;2023-09-12T04:55:42;5.05;;;3.85;;
55186;SDS011;55457;52.002;5.464;2023-09-12T04:58:07;5.53;;;3.80;;
55186;SDS011;55457;52.002;5.464;2023-09-12T05:00:33;6.97;;;4.50;;
55186;SDS011;55457;52.002;5.464;2023-09-12T05:02:58;5.28;;;3.92;;
55186;SDS011;55457;52.002;5.464;2023-09-12T05:05:24;4.40;;;3.90;;
55186;SDS011;55457;52.002;5.464;2023-09-12T05:07:50;4.53;;;3.88;;
55186;SDS011;55457;52.002;5.464;2023-09-12T05:10:16;4.70;;;3.97;;
55186;SDS011;55457;52.002;5.464;2023-09-12T05:12:42;4.68;;;3.75;;
55186;SDS011;55457;52.002;5.464;2023-09-12T05:15:07;4.05;;;3.10;;
55186;SDS011;55457;52.002;5.464;2023-09-12T05:17:32;5.60;;;3.60;;
55186;SDS011;55457;52.002;5.464;2023-09-12T05:19:58;3.70;;;3.08;;
55186;SDS011;55457;52.002;5.464;2023-09-12T05:22:23;5.68;;;3.67;;
55186;SDS011;55457;52.002;5.464;2023-09-12T05:24:49;4.15;;;3.13;;
55186;SDS011;55457;52.002;5.464;2023-09-12T05:27:14;5.00;;;3.20;;
55186;SDS011;55457;52.002;5.464;2023-09-12T05:29:40;4.00;;;3.60;;
55186;SDS011;55457;52.002;5.464;2023-09-12T05:32:05;3.75;;;3.08;;
55186;SDS011;55457;52.002;5.464;2023-09-12T05:34:31;3.33;;;2.95;;
55186;SDS011;55457;52.002;5.464;2023-09-12T05:36:57;5.50;;;3.60;;
55186;SDS011;55457;52.002;5.464;2023-09-12T05:39:22;7.15;;;3.25;;
55186;SDS011;55457;52.002;5.464;2023-09-12T05:41:48;3.92;;;3.13;;
55186;SDS011;55457;52.002;5.464;2023-09-12T05:44:14;8.07;;;4.25;;
55186;SDS011;55457;52.002;5.464;2023-09-12T05:46:46;8.80;;;3.78;;
55186;SDS011;55457;52.002;5.464;2023-09-12T05:49:13;7.50;;;3.63;;
55186;SDS011;55457;52.002;5.464;2023-09-12T05:51:39;5.72;;;3.20;;
55186;SDS011;55457;52.002;5.464;2023-09-12T05:54:05;10.75;;;4.25;;
55186;SDS011;55457;52.002;5.464;2023-09-12T05:56:30;8.10;;;4.22;;
55186;SDS011;55457;52.002;5.464;2023-09-12T05:58:56;6.57;;;3.72;;
55186;SDS011;55457;52.002;5.464;2023-09-12T06:01:21;6.15;;;3.53;;
55186;SDS011;55457;52.002;5.464;2023-09-12T06:03:46;6.72;;;3.53;;
55186;SDS011;55457;52.002;5.464;2023-09-12T06:06:12;6.72;;;3.65;;
55186;SDS011;55457;52.002;5.464;2023-09-12T06:08:37;5.38;;;2.95;;
55186;SDS011;55457;52.002;5.464;2023-09-12T06:11:03;4.80;;;3.20;;
55186;SDS011;55457;52.002;5.464;2023-09-12T06:13:29;6.88;;;3.33;;
55186;SDS011;55457;52.002;5.464;2023-09-12T06:15:55;6.57;;;3.38;;
55186;SDS011;55457;52.002;5.464;2023-09-12T06:18:20;4.47;;;3.55;;
55186;SDS011;55457;52.002;5.464;2023-09-12T06:20:46;7.25;;;3.78;;
55186;SDS011;55457;52.002;5.464;2023-09-12T06:23:11;5.68;;;3.70;;
55186;SDS011;55457;52.002;5.464;2023-09-12T06:25:37;5.50;;;3.80;;
55186;SDS011;55457;52.002;5.464;2023-09-12T06:28:02;5.93;;;4.07;;
55186;SDS011;55457;52.002;5.464;2023-09-12T06:30:28;9.63;;;3.65;;
55186;SDS011;55457;52.002;5.464;2023-09-12T06:32:53;5.18;;;3.75;;
55186;SDS011;55457;52.002;5.464;2023-09-12T06:35:19;7.97;;;4.28;;
55186;SDS011;55457;52.002;5.464;2023-09-12T06:37:44;4.05;;;3.58;;
55186;SDS011;55457;52.002;5.464;2023-09-12T06:40:10;4.93;;;4.03;;
55186;SDS011;55457;52.002;5.464;2023-09-12T06:42:35;5.78;;;4.07;;
55186;SDS011;55457;52.002;5.464;2023-09-12T06:45:00;6.95;;;4.13;;
55186;SDS011;55457;52.002;5.464;2023-09-12T06:47:26;4.82;;;3.70;;
55186;SDS011;55457;52.002;5.464;2023-09-12T06:49:51;5.80;;;4.18;;
55186;SDS011;55457;52.002;5.464;2023-09-12T06:52:16;5.95;;;3.67;;
55186;SDS011;55457;52.002;5.464;2023-09-12T06:54:42;5.13;;;3.88;;
55186;SDS011;55457;52.002;5.464;2023-09-12T06:57:07;4.32;;;3.80;;
55186;SDS011;55457;52.002;5.464;2023-09-12T06:59:33;6.10;;;4.00;;
55186;SDS011;55457;52.002;5.464;2023-09-12T07:01:58;4.72;;;3.50;;
55186;SDS011;55457;52.002;5.464;2023-09-12T07:04:23;5.90;;;4.25;;
55186;SDS011;55457;52.002;5.464;2023-09-12T07:06:49;6.18;;;4.38;;
55186;SDS011;55457;52.002;5.464;2023-09-12T07:09:16;5.47;;;3.90;;
55186;SDS011;55457;52.002;5.464;2023-09-12T07:11:41;4.53;;;3.80;;
55186;SDS011;55457;52.002;5.464;2023-09-12T07:14:07;5.82;;;4.00;;
55186;SDS011;55457;52.002;5.464;2023-09-12T07:16:34;5.63;;;3.53;;
55186;SDS011;55457;52.002;5.464;2023-09-12T07:19:00;7.70;;;4.05;;
55186;SDS011;55457;52.002;5.464;2023-09-12T07:21:25;6.53;;;4.28;;
55186;SDS011;55457;52.002;5.464;2023-09-12T07:23:51;6.78;;;4.50;;
55186;SDS011;55457;52.002;5.464;2023-09-12T07:26:16;6.68;;;3.83;;
55186;SDS011;55457;52.002;5.464;2023-09-12T07:28:41;6.78;;;4.53;;
55186;SDS011;55457;52.002;5.464;2023-09-12T07:31:07;6.97;;;4.15;;
55186;SDS011;55457;52.002;5.464;2023-09-12T07:33:32;8.20;;;5.18;;
55186;SDS011;55457;52.002;5.464;2023-09-12T07:35:58;9.93;;;4.40;;
55186;SDS011;55457;52.002;5.464;2023-09-12T07:38:24;7.28;;;4.65;;
55186;SDS011;55457;52.002;5.464;2023-09-12T07:40:50;6.38;;;4.47;;
55186;SDS011;55457;52.002;5.464;2023-09-12T07:43:16;10.38;;;4.63;;
55186;SDS011;55457;52.002;5.464;2023-09-12T07:45:41;8.93;;;5.00;;
55186;SDS011;55457;52.002;5.464;2023-09-12T07:48:07;6.75;;;4.95;;
55186;SDS011;55457;52.002;5.464;2023-09-12T07:50:35;13.05;;;5.03;;
55186;SDS011;55457;52.002;5.464;2023-09-12T07:53:03;8.32;;;5.03;;
55186;SDS011;55457;52.002;5.464;2023-09-12T07:55:29;8.35;;;4.88;;
55186;SDS011;55457;52.002;5.464;2023-09-12T07:57:58;8.38;;;4.78;;
55186;SDS011;55457;52.002;5.464;2023-09-12T08:00:23;10.00;;;5.78;;
55186;SDS011;55457;52.002;5.464;2023-09-12T08:02:49;10.35;;;5.85;;
55186;SDS011;55457;52.002;5.464;2023-09-12T08:05:15;8.18;;;5.45;;
55186;SDS011;55457;52.002;5.464;2023-09-12T08:07:40;9.68;;;6.10;;
55186;SDS011;55457;52.002;5.464;2023-09-12T08:10:06;9.98;;;6.97;;
55186;SDS011;55457;52.002;5.464;2023-09-12T08:12:31;9.25;;;5.95;;
55186;SDS011;55457;52.002;5.464;2023-09-12T08:14:57;9.07;;;6.03;;
55186;SDS011;55457;52.002;5.464;2023-09-12T08:17:23;12.15;;;7.25;;
55186;SDS011;55457;52.002;5.464;2023-09-12T08:19:49;9.63;;;6.78;;
55186;SDS011;55457;52.002;5.464;2023-09-12T08:22:15;13.73;;;6.70;;
55186;SDS011;55457;52.002;5.464;2023-09-12T08:24:40;11.77;;;7.20;;
55186;SDS011;55457;52.002;5.464;2023-09-12T08:27:06;12.18;;;8.05;;
55186;SDS011;55457;52.002;5.464;2023-09-12T08:29:34;14.02;;;7.40;;
55186;SDS011;55457;52.002;5.464;2023-09-12T08:32:00;14.07;;;7.95;;
55186;SDS011;55457;52.002;5.464;2023-09-12T08:34:26;14.55;;;7.65;;
55186;SDS011;55457;52.002;5.464;2023-09-12T08:36:51;14.40;;;9.07;;
55186;SDS011;55457;52.002;5.464;2023-09-12T08:39:18;26.05;;;14.13;;
55186;SDS011;55457;52.002;5.464;2023-09-12T08:41:48;17.85;;;10.65;;
55186;SDS011;55457;52.002;5.464;2023-09-12T08:44:14;17.67;;;10.02;;
55186;SDS011;55457;52.002;5.464;2023-09-12T08:46:41;15.18;;;8.77;;
55186;SDS011;55457;52.002;5.464;2023-09-12T08:49:07;16.20;;;9.13;;
55186;SDS011;55457;52.002;5.464;2023-09-12T08:51:34;12.38;;;7.97;;
55186;SDS011;55457;52.002;5.464;2023-09-12T08:54:00;15.57;;;8.25;;
55186;SDS011;55457;52.002;5.464;2023-09-12T08:56:28;24.15;;;12.57;;
55186;SDS011;55457;52.002;5.464;2023-09-12T08:58:56;21.75;;;12.27;;
55186;SDS011;55457;52.002;5.464;2023-09-12T09:01:23;21.40;;;11.13;;
55186;SDS011;55457;52.002;5.464;2023-09-12T09:03:52;20.65;;;11.52;;
55186;SDS011;55457;52.002;5.464;2023-09-12T09:06:17;15.43;;;10.05;;
55186;SDS011;55457;52.002;5.464;2023-09-12T09:08:47;18.02;;;10.55;;
55186;SDS011;55457;52.002;5.464;2023-09-12T09:11:13;18.67;;;11.98;;
55186;SDS011;55457;52.002;5.464;2023-09-12T09:13:38;18.67;;;10.35;;
55186;SDS011;55457;52.002;5.464;2023-09-12T09:21:27;24.05;;;13.15;;
55186;SDS011;55457;52.002;5.464;2023-09-12T09:23:55;17.38;;;11.88;;
55186;SDS011;55457;52.002;5.464;2023-09-12T09:26:21;18.55;;;11.48;;
55186;SDS011;55457;52.002;5.464;2023-09-12T09:29:03;21.70;;;13.10;;
55186;SDS011;55457;52.002;5.464;2023-09-12T09:31:31;22.48;;;13.77;;
55186;SDS011;55457;52.002;5.464;2023-09-12T09:33:57;20.92;;;11.85;;
55186;SDS011;55457;52.002;5.464;2023-09-12T09:36:23;23.88;;;14.45;;
55186;SDS011;55457;52.002;5.464;2023-09-12T09:38:50;20.63;;;12.70;;
55186;SDS011;55457;52.002;5.464;2023-09-12T09:41:15;24.95;;;12.90;;
55186;SDS011;55457;52.002;5.464;2023-09-12T09:43:40;24.10;;;12.82;;
55186;SDS011;55457;52.002;5.464;2023-09-12T09:46:08;16.15;;;10.35;;
55186;SDS011;55457;52.002;5.464;2023-09-12T09:48:40;21.13;;;12.15;;
55186;SDS011;55457;52.002;5.464;2023-09-12T09:51:14;20.38;;;12.38;;
55186;SDS011;55457;52.002;5.464;2023-09-12T09:53:39;15.70;;;10.70;;
55186;SDS011;55457;52.002;5.464;2023-09-12T09:56:08;20.70;;;13.32;;
55186;SDS011;55457;52.002;5.464;2023-09-12T09:58:55;21.80;;;11.75;;
55186;SDS011;55457;52.002;5.464;2023-09-12T10:01:30;19.02;;;11.30;;
55186;SDS011;55457;52.002;5.464;2023-09-12T10:03:57;18.13;;;11.88;;
55186;SDS011;55457;52.002;5.464;2023-09-12T10:06:24;19.50;;;11.98;;
55186;SDS011;55457;52.002;5.464;2023-09-12T10:08:51;18.55;;;12.57;;
55186;SDS011;55457;52.002;5.464;2023-09-12T10:11:18;20.95;;;11.73;;
55186;SDS011;55457;52.002;5.464;2023-09-12T10:13:53;16.35;;;11.80;;
55186;SDS011;55457;52.002;5.464;2023-09-12T10:16:23;16.30;;;10.85;;
55186;SDS011;55457;52.002;5.464;2023-09-12T10:18:57;15.52;;;11.63;;
55186;SDS011;55457;52.002;5.464;2023-09-12T10:21:29;15.43;;;10.15;;
55186;SDS011;55457;52.002;5.464;2023-09-12T10:23:58;15.07;;;10.18;;
55186;SDS011;55457;52.002;5.464;2023-09-12T10:26:25;17.38;;;10.57;;
55186;SDS011;55457;52.002;5.464;2023-09-12T10:28:51;14.15;;;9.77;;
55186;SDS011;55457;52.002;5.464;2023-09-12T10:31:17;15.13;;;10.15;;
55186;SDS011;55457;52.002;5.464;2023-09-12T10:33:44;16.95;;;10.23;;
55186;SDS011;55457;52.002;5.464;2023-09-12T10:36:11;15.35;;;9.60;;
55186;SDS011;55457;52.002;5.464;2023-09-12T10:38:41;17.10;;;11.55;;
55186;SDS011;55457;52.002;5.464;2023-09-12T10:41:11;14.73;;;10.48;;
55186;SDS011;55457;52.002;5.464;2023-09-12T10:43:38;20.33;;;12.55;;
55186;SDS011;55457;52.002;5.464;2023-09-12T10:46:05;20.15;;;12.35;;
55186;SDS011;55457;52.002;5.464;2023-09-12T10:48:32;20.15;;;11.52;;
55186;SDS011;55457;52.002;5.464;2023-09-12T10:51:00;16.70;;;10.35;;
55186;SDS011;55457;52.002;5.464;2023-09-12T10:53:28;17.50;;;10.03;;
55186;SDS011;55457;52.002;5.464;2023-09-12T11:01:29;14.70;;;10.07;;
55186;SDS011;55457;52.002;5.464;2023-09-12T11:03:55;13.70;;;8.90;;
55186;SDS011;55457;52.002;5.464;2023-09-12T11:06:21;12.63;;;8.70;;
55186;SDS011;55457;52.002;5.464;2023-09-12T11:11:38;12.98;;;8.65;;
55186;SDS011;55457;52.002;5.464;2023-09-12T11:14:07;13.50;;;9.55;;
55186;SDS011;55457;52.002;5.464;2023-09-12T11:16:33;11.35;;;8.38;;
55186;SDS011;55457;52.002;5.464;2023-09-12T11:19:19;10.27;;;7.50;;
55186;SDS011;55457;52.002;5.464;2023-09-12T11:21:49;10.98;;;7.22;;
55186;SDS011;55457;52.002;5.464;2023-09-12T11:24:16;12.05;;;7.25;;
55186;SDS011;55457;52.002;5.464;2023-09-12T11:27:01;8.82;;;7.25;;
55186;SDS011;55457;52.002;5.464;2023-09-12T11:29:36;12.93;;;7.28;;
55186;SDS011;55457;52.002;5.464;2023-09-12T11:32:03;9.65;;;7.43;;
55186;SDS011;55457;52.002;5.464;2023-09-12T11:34:36;11.18;;;8.43;;
55186;SDS011;55457;52.002;5.464;2023-09-12T11:37:03;12.95;;;8.50;;
55186;SDS011;55457;52.002;5.464;2023-09-12T11:39:30;11.15;;;7.10;;
55186;SDS011;55457;52.002;5.464;2023-09-12T11:41:57;10.52;;;7.20;;
55186;SDS011;55457;52.002;5.464;2023-09-12T11:44:24;10.88;;;7.05;;
55186;SDS011;55457;52.002;5.464;2023-09-12T11:46:51;9.90;;;6.40;;
55186;SDS011;55457;52.002;5.464;2023-09-12T11:49:17;11.43;;;7.50;;
55186;SDS011;55457;52.002;5.464;2023-09-12T11:51:47;9.50;;;6.68;;
55186;SDS011;55457;52.002;5.464;2023-09-12T11:54:19;10.10;;;7.25;;
55186;SDS011;55457;52.002;5.464;2023-09-12T11:56:49;9.68;;;6.85;;
55186;SDS011;55457;52.002;5.464;2023-09-12T11:59:16;9.65;;;6.80;;
55186;SDS011;55457;52.002;5.464;2023-09-12T12:01:46;15.23;;;7.82;;
55186;SDS011;55457;52.002;5.464;2023-09-12T12:04:11;14.80;;;7.03;;
55186;SDS011;55457;52.002;5.464;2023-09-12T12:06:37;9.98;;;7.07;;
55186;SDS011;55457;52.002;5.464;2023-09-12T12:09:02;11.45;;;7.85;;
55186;SDS011;55457;52.002;5.464;2023-09-12T12:11:29;11.50;;;6.70;;
55186;SDS011;55457;52.002;5.464;2023-09-12T12:13:55;16.42;;;8.02;;
55186;SDS011;55457;52.002;5.464;2023-09-12T12:16:20;12.77;;;6.78;;
55186;SDS011;55457;52.002;5.464;2023-09-12T12:18:46;10.40;;;7.13;;
55186;SDS011;55457;52.002;5.464;2023-09-12T12:21:18;13.40;;;7.15;;
55186;SDS011;55457;52.002;5.464;2023-09-12T12:23:43;9.90;;;7.45;;
55186;SDS011;55457;52.002;5.464;2023-09-12T12:26:09;9.82;;;7.00;;
55186;SDS011;55457;52.002;5.464;2023-09-12T12:28:35;10.60;;;7.13;;
55186;SDS011;55457;52.002;5.464;2023-09-12T12:31:00;11.52;;;7.35;;
55186;SDS011;55457;52.002;5.464;2023-09-12T12:33:26;15.48;;;7.20;;
55186;SDS011;55457;52.002;5.464;2023-09-12T12:35:59;12.05;;;7.00;;
55186;SDS011;55457;52.002;5.464;2023-09-12T12:38:31;11.18;;;7.75;;
55186;SDS011;55457;52.002;5.464;2023-09-12T12:41:00;12.32;;;6.90;;
55186;SDS011;55457;52.002;5.464;2023-09-12T12:43:26;12.10;;;7.57;;
55186;SDS011;55457;52.002;5.464;2023-09-12T12:45:55;11.68;;;7.55;;
55186;SDS011;55457;52.002;5.464;2023-09-12T12:50:57;14.23;;;7.82;;
55186;SDS011;55457;52.002;5.464;2023-09-12T12:53:41;12.70;;;7.25;;
55186;SDS011;55457;52.002;5.464;2023-09-12T12:56:08;12.18;;;7.00;;
55186;SDS011;55457;52.002;5.464;2023-09-12T12:58:34;11.90;;;6.63;;
55186;SDS011;55457;52.002;5.464;2023-09-12T13:01:00;12.27;;;7.35;;
55186;SDS011;55457;52.002;5.464;2023-09-12T13:03:26;14.23;;;6.75;;
55186;SDS011;55457;52.002;5.464;2023-09-12T13:05:51;10.82;;;7.32;;
55186;SDS011;55457;52.002;5.464;2023-09-12T13:08:16;11.40;;;6.88;;
55186;SDS011;55457;52.002;5.464;2023-09-12T13:10:43;9.43;;;6.90;;
55186;SDS011;55457;52.002;5.464;2023-09-12T13:13:08;12.77;;;7.97;;
55186;SDS011;55457;52.002;5.464;2023-09-12T13:15:34;11.23;;;6.93;;
55186;SDS011;55457;52.002;5.464;2023-09-12T13:17:59;13.85;;;6.75;;
55186;SDS011;55457;52.002;5.464;2023-09-12T13:20:26;14.73;;;8.15;;
55186;SDS011;55457;52.002;5.464;2023-09-12T13:22:51;16.52;;;7.07;;
55186;SDS011;55457;52.002;5.464;2023-09-12T13:25:16;12.43;;;7.10;;
55186;SDS011;55457;52.002;5.464;2023-09-12T13:27:42;11.82;;;6.88;;
55186;SDS011;55457;52.002;5.464;2023-09-12T13:30:07;9.43;;;7.03;;
55186;SDS011;55457;52.002;5.464;2023-09-12T13:32:33;12.57;;;6.90;;
55186;SDS011;55457;52.002;5.464;2023-09-12T13:34:58;9.70;;;6.95;;
55186;SDS011;55457;52.002;5.464;2023-09-12T13:37:24;13.68;;;8.68;;
55186;SDS011;55457;52.002;5.464;2023-09-12T13:39:49;9.75;;;7.30;;
55186;SDS011;55457;52.002;5.464;2023-09-12T13:42:15;11.13;;;6.65;;
55186;SDS011;55457;52.002;5.464;2023-09-12T13:44:44;8.82;;;6.78;;
55186;SDS011;55457;52.002;5.464;2023-09-12T13:47:10;13.18;;;7.50;;
55186;SDS011;55457;52.002;5.464;2023-09-12T13:49:35;16.23;;;7.00;;
55186;SDS011;55457;52.002;5.464;2023-09-12T13:52:01;11.32;;;7.20;;
55186;SDS011;55457;52.002;5.464;2023-09-12T13:54:27;11.40;;;6.90;;
55186;SDS011;55457;52.002;5.464;2023-09-12T13:56:54;17.27;;;8.43;;
55186;SDS011;55457;52.002;5.464;2023-09-12T13:59:19;12.57;;;7.78;;
55186;SDS011;55457;52.002;5.464;2023-09-12T14:01:45;10.02;;;7.60;;
55186;SDS011;55457;52.002;5.464;2023-09-12T14:04:11;13.52;;;7.72;;
55186;SDS011;55457;52.002;5.464;2023-09-12T14:06:38;11.30;;;7.43;;
55186;SDS011;55457;52.002;5.464;2023-09-12T14:09:04;10.88;;;7.00;;
55186;SDS011;55457;52.002;5.464;2023-09-12T14:11:30;12.52;;;7.70;;
55186;SDS011;55457;52.002;5.464;2023-09-12T14:13:55;13.40;;;7.57;;
55186;SDS011;55457;52.002;5.464;2023-09-12T14:16:20;12.43;;;7.13;;
55186;SDS011;55457;52.002;5.464;2023-09-12T14:18:46;11.32;;;7.18;;
55186;SDS011;55457;52.002;5.464;2023-09-12T14:21:11;12.52;;;7.55;;
55186;SDS011;55457;52.002;5.464;2023-09-12T14:23:37;19.02;;;8.07;;
55186;SDS011;55457;52.002;5.464;2023-09-12T14:26:03;14.10;;;7.15;;
55186;SDS011;55457;52.002;5.464;2023-09-12T14:28:28;13.52;;;7.80;;
55186;SDS011;55457;52.002;5.464;2023-09-12T14:30:56;13.05;;;7.38;;
55186;SDS011;55457;52.002;5.464;2023-09-12T14:33:22;12.85;;;7.32;;
55186;SDS011;55457;52.002;5.464;2023-09-12T14:35:47;14.25;;;7.45;;
55186;SDS011;55457;52.002;5.464;2023-09-12T14:38:13;18.50;;;8.60;;
55186;SDS011;55457;52.002;5.464;2023-09-12T14:40:38;13.57;;;7.20;;
55186;SDS011;55457;52.002;5.464;2023-09-12T14:43:04;23.50;;;7.68;;
55186;SDS011;55457;52.002;5.464;2023-09-12T14:45:30;12.50;;;7.40;;
55186;SDS011;55457;52.002;5.464;2023-09-12T14:47:56;14.45;;;7.35;;
55186;SDS011;55457;52.002;5.464;2023-09-12T14:50:22;14.65;;;7.93;;
55186;SDS011;55457;52.002;5.464;2023-09-12T14:52:54;12.10;;;7.88;;